Nearby METAR Reports

 

KMLE - Omaha/Millard, Nebraska, USA
Distance from station: NE 1mi, 2km
Updated: Sun, 21-Oct-2018 11:35pm CDT
Clear
Clear
 Wind from calm
Wind: Calm
Temperature: 52°F , 11°C
Dew Point: 43°F , 6°C
Humidity: 72%
Barometer: 30.03 inHg , 1016.9 hPa
Clouds: Clear
Visibility: 10 miles , 16 km
2018/10/22 04:35 KMLE 220435Z AUTO 00000KT 10SM CLR 11/06 A3003 RMK AO2 T01050064
KOFF - Offutt Afb/Belle, Nebraska, USA
Distance from station: ESE 12mi, 20km
Updated: Sun, 21-Oct-2018 10:56pm CDT
Clear
Clear
 Wind from calm
Wind: Calm
Temperature: 45°F , 7°C
Dew Point: 45°F , 7°C
Humidity: 100%
Barometer: 30.01 inHg , 1016.3 hPa
Clouds: Clear
Visibility: 10 miles , 16 km
2018/10/22 03:56 KOFF 220356Z AUTO 00000KT 10SM CLR 07/07 A3001 RMK AO2 SLP171 T00730069 $
 
KOMA - Omaha/Eppley, Nebraska, USA
Distance from station: NE 15mi, 24km
Updated: Sun, 21-Oct-2018 10:52pm CDT
Clear
Clear
 Wind from SSE
Wind: SSE 7 mph , 11 km/h
Temperature: 54°F , 12°C
Dew Point: 41°F , 5°C
Humidity: 63%
Barometer: 30.01 inHg , 1016.3 hPa
Clouds: Clear
Visibility: 10 miles , 16 km
2018/10/22 03:52 KOMA 220352Z 16006KT 10SM CLR 12/05 A3001 RMK AO2 SLP164 T01170050
KBTA - Blair Muni, Nebraska, USA
Distance from station: N 16mi, 25km
Updated: Sun, 21-Oct-2018 11:35pm CDT
Clear
Clear
 Wind from SSW
Wind: SSW 9 mph , 15 km/h
Temperature: 55°F , 13°C
Dew Point: 43°F , 6°C
Humidity: 63%
Barometer: 30.01 inHg , 1016.3 hPa
Clouds: Clear
Visibility: 10 miles , 16 km
2018/10/22 04:35 KBTA 220435Z AUTO 20008KT 10SM CLR 13/06 A3001 RMK AO2 T01250060
 
KCBF - Council Bluffs, Iowa, USA
Distance from station: ENE 20mi, 32km
Updated: Sun, 21-Oct-2018 11:55pm CDT
Clear
Clear
 Wind from WSW
Wind: WSW 8 mph , 13 km/h
Temperature: 54°F , 12°C
Dew Point: 43°F , 6°C
Humidity: 67%
Barometer: 30.02 inHg , 1016.6 hPa
Clouds: Clear
Visibility: 10 miles , 16 km
2018/10/22 04:55 KCBF 220455Z AUTO 24007KT 10SM CLR 12/06 A3002 RMK AO2
KPMV - Plattsmouth Muni, Nebraska, USA
Distance from station: SE 20mi, 32km
Updated: Sun, 21-Oct-2018 11:35pm CDT
Clear
Clear
 Wind from SSW
Wind: SSW 10 mph , 17 km/h, Gust: 16 mph , 26 km/h
Temperature: 55°F , 13°C
Dew Point: 45°F , 7°C
Humidity: 67%
Barometer: 30.01 inHg , 1016.3 hPa
Clouds: Clear
Visibility: 10 miles , 16 km
2018/10/22 04:35 KPMV 220435Z AUTO 20009G14KT 10SM CLR 13/07 A3001 RMK AO2 T01310067
 
KAHQ - Wahoo, Nebraska, USA
Distance from station: W 25mi, 40km
Updated: Sun, 21-Oct-2018 11:35pm CDT
Clear
Clear
 Wind from calm
Wind: Calm
Temperature: 46°F , 8°C
Dew Point: 41°F , 5°C
Humidity: 82%
Barometer: 30.03 inHg , 1016.9 hPa
Clouds: Clear
Visibility: 10 miles , 16 km
2018/10/22 04:35 KAHQ 220435Z AUTO 00000KT 10SM CLR 08/05 A3003 RMK AO2 T00830047
KFET - Fremont Muni Arp, Nebraska, USA
Distance from station: NW 27mi, 43km
Updated: Sun, 21-Oct-2018 11:35pm CDT
Clear
Clear
 Wind from W
Wind: W 5 mph , 7 km/h
Temperature: 52°F , 11°C
Dew Point: 43°F , 6°C
Humidity: 72%
Barometer: 30.02 inHg , 1016.6 hPa
Clouds: Clear
Visibility: 10 miles , 16 km
2018/10/22 04:35 KFET 220435Z AUTO 27004KT 10SM CLR 11/06 A3002 RMK AO2 T01070056
 
KTQE - Tekamah, Nebraska, USA
Distance from station: N 40mi, 64km
Updated: Sun, 21-Oct-2018 11:54pm CDT
Clear
Clear
 Wind from calm
Wind: Calm
Temperature: 45°F , 7°C
Dew Point: 39°F , 4°C
Humidity: 81%
Barometer: 30.01 inHg , 1016.3 hPa
Clouds: Clear
Visibility: 10 miles , 16 km
2018/10/22 04:54 KTQE 220454Z AUTO 00000KT 10SM CLR 07/04 A3001 RMK AO2 SLP162 T00670039
KLNK - Lincoln, Nebraska, USA
Distance from station: SW 41mi, 65km
Updated: Sun, 21-Oct-2018 11:54pm CDT
Clear
Clear
 Wind from SSW
Wind: SSW 8 mph , 13 km/h
Temperature: 55°F , 13°C
Dew Point: 43°F , 6°C
Humidity: 63%
Barometer: 30.02 inHg , 1016.6 hPa
Clouds: Clear
Visibility: 10 miles , 16 km
2018/10/22 04:54 KLNK 220454Z AUTO 21007KT 10SM CLR 13/06 A3002 RMK AO2 SLP166 T01280061
 
KAFK - Nebraska City, Nebraska, USA
Distance from station: SSE 43mi, 70km
Updated: Sun, 21-Oct-2018 11:35pm CDT
Clear
Clear
 Wind from SW
Wind: SW 12 mph , 19 km/h
Temperature: 55°F , 13°C
Dew Point: 37°F , 3°C
Humidity: 51%
Barometer: 30.03 inHg , 1016.9 hPa
Clouds: Clear
Visibility: 10 miles , 16 km
2018/10/22 04:35 KAFK 220435Z AUTO 22010KT 10SM CLR 13/03 A3003 RMK AO2 T01270032
KRDK - Red Oak, Iowa, USA
Distance from station: ESE 47mi, 75km
Updated: Sun, 21-Oct-2018 11:55pm CDT
Few Clouds
Few Clouds
 Wind from S
Wind: S 6 mph , 9 km/h
Temperature: 48°F , 9°C
Wind Chill: 45°F , 7°C
Dew Point: 41°F , 5°C
Humidity: 76%
Barometer: 30.03 inHg , 1016.9 hPa
Clouds: Few Clouds
Visibility: 10 miles , 16 km
Cloud details: Few Clouds 27000 ft
Few Clouds 29000 ft
2018/10/22 04:55 KRDK 220455Z AUTO 19005KT 10SM FEW270 FEW290 09/05 A3003 RMK AO2
 
KSDA - Shenandoah Muni, Iowa, USA
Distance from station: SE 48mi, 77km
Updated: Sun, 21-Oct-2018 11:55pm CDT
Clear
Clear
 Wind from S
Wind: S 7 mph , 11 km/h
Temperature: 50°F , 10°C
Wind Chill: 47°F , 8°C
Dew Point: 43°F , 6°C
Humidity: 76%
Barometer: 30.04 inHg , 1017.3 hPa
Clouds: Clear
Visibility: 10 miles , 16 km
2018/10/22 04:55 KSDA 220455Z AUTO 19006KT 10SM CLR 10/06 A3004 RMK AO2
KHNR - Harlan Muni, Iowa, USA
Distance from station: NE 49mi, 80km
Updated: Sun, 21-Oct-2018 11:55pm CDT
Clear
Clear
 Wind from S
Wind: S 3 mph , 6 km/h
Temperature: 45°F , 7°C
Dew Point: 41°F , 5°C
Humidity: 87%
Barometer: 30.02 inHg , 1016.6 hPa
Clouds: Clear
Visibility: 10 miles , 16 km
2018/10/22 04:55 KHNR 220455Z AUTO 17003KT 10SM CLR 07/05 A3002 RMK AO2